Ankergracht — PCQL — position and weather

sailwx.info

Track history (hours):
 
Tides and Currents Weather Stations Pressure Air Temp Water Temp Dewpoint Dewpoint Depression Visibility Wind Speed Wind Dir Waves Ship Positions

Ankergracht

Last reported at 2014-Nov-28 18:33 UTC. Time now 2014-Nov-28 19:18 UTC.
Position N 39°14' E 002°20'.

Length 130 m; beam 19 m; draft 9 m.

Type: Cargo ship. MMSI: 244852000.

Date/timePositionNaut miles runAvg speedWind from/ knotsBaromVisibWave heightAir tempDewpointWater temp
2014-Nov-28 18:33N 39°14' E 002°20'1211.9
2014-Nov-28 17:33N 39°23' E 002°29'1111.1
2014-Nov-28 16:33N 39°32' E 002°39'1 1.1
2014-Nov-28 15:33N 39°33' E 002°38'0 0.0
2014-Nov-28 14:33N 39°33' E 002°38'0 0.0
2014-Nov-28 13:33N 39°33' E 002°38'0 0.0
2014-Nov-28 12:33N 39°33' E 002°38'0 0.0
2014-Nov-28 11:33N 39°33' E 002°38'0 0.0
2014-Nov-28 10:33N 39°33' E 002°38'0 0.0
2014-Nov-28 09:33N 39°33' E 002°38'4 3.0
2014-Nov-28 08:22N 39°29' E 002°37'911.4
2014-Nov-28 07:33N 39°26' E 002°26'1212.1
2014-Nov-28 06:33N 39°35' E 002°16'1212.0
2014-Nov-28 05:33N 39°44' E 002°26'1212.6
2014-Nov-28 04:33N 39°53' E 002°38'1312.7
2014-Nov-28 03:33N 40°01' E 002°50'1312.8
2014-Nov-28 02:33N 40°10' E 003°02'1312.7
2014-Nov-28 01:33N 40°20' E 003°14'8911.8
2014-Nov-27 18:00N 41°18' E 004°42'918.7 150 / 161004.8 5.4 19.115.819.7
2014-Nov-27 17:29N 41°26' E 004°49'1612.6
2014-Nov-27 16:12N 41°37' E 005°04'8512.8
2014-Nov-27 09:33N 42°34' E 006°29'2013.2
2014-Nov-27 08:03N 42°48' E 006°49'713.6
2014-Nov-27 07:30N 42°53' E 006°56'9612.1
2014-Nov-26 23:33N 43°60' E 008°31'1010.2
2014-Nov-26 22:33N 44°07' E 008°40'6 6.5
2014-Nov-26 21:33N 44°12' E 008°47'10 9.4
2014-Nov-26 20:33N 44°19' E 008°56'4 4.3
2014-Nov-26 19:34N 44°23' E 008°57'2 2.2
2014-Nov-26 18:31N 44°24' E 008°54'0 0.0
2014-Nov-26 17:28N 44°24' E 008°54'0 0.0
2014-Nov-26 16:31N 44°24' E 008°54'0 0.0
2014-Nov-26 15:31N 44°24' E 008°54'0 0.0
2014-Nov-26 14:31N 44°24' E 008°54'0 0.0
2014-Nov-26 13:28N 44°24' E 008°54'0 0.0
2014-Nov-26 12:31N 44°24' E 008°54'0 0.0
2014-Nov-26 11:34N 44°24' E 008°54'0 0.0
2014-Nov-26 10:33N 44°24' E 008°54'0 0.0
2014-Nov-26 09:27N 44°24' E 008°54'0 0.0
2014-Nov-26 08:33N 44°24' E 008°54'0 0.0
2014-Nov-26 07:30N 44°24' E 008°54'0 0.0
2014-Nov-26 04:15N 44°24' E 008°54'0 0.0
2014-Nov-26 03:30N 44°24' E 008°54'0 0.0
2014-Nov-26 02:24N 44°24' E 008°54'0 0.0
2014-Nov-26 01:33N 44°24' E 008°54'0 0.0
2014-Nov-26 00:30N 44°24' E 008°54'0 0.0
2014-Nov-25 23:30N 44°24' E 008°54'0 0.0
2014-Nov-25 21:09N 44°24' E 008°54'0 0.0
2014-Nov-25 19:27N 44°24' E 008°54'0 0.0
2014-Nov-25 18:24N 44°24' E 008°54'0 0.0
2014-Nov-25 17:33N 44°24' E 008°54'0 0.0
2014-Nov-25 16:27N 44°24' E 008°54'2 1.4
2014-Nov-25 15:16N 44°24' E 008°56'0 0.0
2014-Nov-25 14:10N 44°24' E 008°56'0 0.0
2014-Nov-25 13:10N 44°24' E 008°56'0 0.0
2014-Nov-25 11:19N 44°24' E 008°56'0 0.0
2014-Nov-25 10:10N 44°24' E 008°56'0 0.0
2014-Nov-25 07:07N 44°24' E 008°56'0 0.0
2014-Nov-25 03:19N 44°24' E 008°56'0 0.0
2014-Nov-25 02:22N 44°24' E 008°56'0 0.0
2014-Nov-25 00:10N 44°24' E 008°56'0 0.0
2014-Nov-24 20:16N 44°24' E 008°56'0 0.0
2014-Nov-24 19:22N 44°24' E 008°56'0 0.0
2014-Nov-24 15:34N 44°24' E 008°56'0 0.0
2014-Nov-24 13:33N 44°24' E 008°56'0 0.0
2014-Nov-24 12:27N 44°24' E 008°56'0 0.0
2014-Nov-24 11:27N 44°24' E 008°56'0 0.0
2014-Nov-24 08:03N 44°24' E 008°56'0 0.0
2014-Nov-24 07:18N 44°24' E 008°56'0 0.0
2014-Nov-24 03:30N 44°24' E 008°56'0 0.0
2014-Nov-24 02:33N 44°24' E 008°56'0 0.0
2014-Nov-24 01:30N 44°24' E 008°56'0 0.0
2014-Nov-24 00:27N 44°24' E 008°56'0 0.0
2014-Nov-23 23:27N 44°24' E 008°56'0 0.0
2014-Nov-23 22:15N 44°24' E 008°56'0 0.0
2014-Nov-23 19:15N 44°24' E 008°56'0 0.0
2014-Nov-23 18:15N 44°24' E 008°56'0 0.0
2014-Nov-23 16:27N 44°24' E 008°56'0 0.0
2014-Nov-23 15:33N 44°24' E 008°56'0 0.0
2014-Nov-23 13:21N 44°24' E 008°56'0 0.0
2014-Nov-23 12:27N 44°24' E 008°56'0 0.0
2014-Nov-23 11:30N 44°24' E 008°56'0 0.0
2014-Nov-23 10:30N 44°24' E 008°56'0 0.0
2014-Nov-23 08:27N 44°24' E 008°56'0 0.0
2014-Nov-23 07:33N 44°24' E 008°56'0 0.0
2014-Nov-23 06:24N 44°24' E 008°56'0 0.0
2014-Nov-23 03:32N 44°24' E 008°56'0 0.0
2014-Nov-23 01:20N 44°24' E 008°56'0 0.0
2014-Nov-22 20:05N 44°24' E 008°56'0 0.0
2014-Nov-22 19:32N 44°24' E 008°56'0 0.0
2014-Nov-22 18:32N 44°24' E 008°56'0 0.0
2014-Nov-22 17:14N 44°24' E 008°56'0 0.0
2014-Nov-22 16:20N 44°24' E 008°56'0 0.0
2014-Nov-22 15:17N 44°24' E 008°56'0 0.0
2014-Nov-22 14:23N 44°24' E 008°56'0 0.0
2014-Nov-22 11:26N 44°24' E 008°56'0 0.0
2014-Nov-22 09:20N 44°24' E 008°56'0 0.0
2014-Nov-22 07:32N 44°24' E 008°56'0 0.0
2014-Nov-22 06:26N 44°24' E 008°56'0 0.0
2014-Nov-22 03:32N 44°24' E 008°56'0 0.0
2014-Nov-22 02:32N 44°24' E 008°56'0 0.0
2014-Nov-22 01:32N 44°24' E 008°56'0 0.0
2014-Nov-22 00:14N 44°24' E 008°56'0 0.0
2014-Nov-21 23:26N 44°24' E 008°56'0 0.0
2014-Nov-21 22:29N 44°24' E 008°56'0 0.0
2014-Nov-21 19:32N 44°24' E 008°56'0 0.0
2014-Nov-21 16:13N 44°24' E 008°56'0 0.0
2014-Nov-21 15:31N 44°24' E 008°56'0 0.0
2014-Nov-21 11:30N 44°24' E 008°56'0 0.0
2014-Nov-21 08:06N 44°24' E 008°56'0 0.0
2014-Nov-21 05:12N 44°24' E 008°56'0 0.0
2014-Nov-21 03:12N 44°24' E 008°56'0 0.0
2014-Nov-21 01:18N 44°24' E 008°56'0 0.0
2014-Nov-21 00:33N 44°24' E 008°56'0 0.0
2014-Nov-20 20:06N 44°24' E 008°56'0 0.0
2014-Nov-20 16:30N 44°24' E 008°56'0 0.0
2014-Nov-20 15:30N 44°24' E 008°56'0 0.0
2014-Nov-20 14:18N 44°24' E 008°56'0 0.0
2014-Nov-20 13:18N 44°24' E 008°56'0 0.0
2014-Nov-20 12:12N 44°24' E 008°56'0 0.0
2014-Nov-20 11:30N 44°24' E 008°56'0 0.0
2014-Nov-20 10:18N 44°24' E 008°56'0 0.0
2014-Nov-20 03:33N 44°24' E 008°56'0 0.0
2014-Nov-20 02:33N 44°24' E 008°56'0 0.0
2014-Nov-20 01:06N 44°24' E 008°56'0 0.0
2014-Nov-19 23:23N 44°24' E 008°56'0 0.0
2014-Nov-19 19:29N 44°24' E 008°56'0 0.0
2014-Nov-19 18:32N 44°24' E 008°56'0 0.0
2014-Nov-19 16:29N 44°24' E 008°56'0 0.0
2014-Nov-19 15:23N 44°24' E 008°56'0 0.0
2014-Nov-19 13:11N 44°24' E 008°56'0 0.0
2014-Nov-19 11:29N 44°24' E 008°56'0 0.0
2014-Nov-19 08:29N 44°24' E 008°56'0 0.0
2014-Nov-19 03:29N 44°24' E 008°56'0 0.0
2014-Nov-19 02:20N 44°24' E 008°56'0 0.0
2014-Nov-19 01:11N 44°24' E 008°56'0 0.0
2014-Nov-19 00:23N 44°24' E 008°56'0 0.0
2014-Nov-18 23:23N 44°24' E 008°56'0 0.0
2014-Nov-18 22:17N 44°24' E 008°56'  
Track history (hours):
 
Tides and Currents Weather Stations Pressure Air Temp Water Temp Dewpoint Dewpoint Depression Visibility Wind Speed Wind Dir Waves Ship Positions

Ankergracht

Last reported at 2014-Nov-28 18:33 UTC. Time now 2014-Nov-28 19:18 UTC.
Position N 39°14' E 002°20'.

Length 130 m; beam 19 m; draft 9 m.

Type: Cargo ship. MMSI: 244852000.

Date/timePositionNaut miles runAvg speedWind from/ knotsBaromVisibWave heightAir tempDewpointWater temp
2014-Nov-28 18:33N 39°14' E 002°20'1211.9
2014-Nov-28 17:33N 39°23' E 002°29'1111.1
2014-Nov-28 16:33N 39°32' E 002°39'1 1.1
2014-Nov-28 15:33N 39°33' E 002°38'0 0.0
2014-Nov-28 14:33N 39°33' E 002°38'0 0.0
2014-Nov-28 13:33N 39°33' E 002°38'0 0.0
2014-Nov-28 12:33N 39°33' E 002°38'0 0.0
2014-Nov-28 11:33N 39°33' E 002°38'0 0.0
2014-Nov-28 10:33N 39°33' E 002°38'0 0.0
2014-Nov-28 09:33N 39°33' E 002°38'4 3.0
2014-Nov-28 08:22N 39°29' E 002°37'911.4
2014-Nov-28 07:33N 39°26' E 002°26'1212.1
2014-Nov-28 06:33N 39°35' E 002°16'1212.0
2014-Nov-28 05:33N 39°44' E 002°26'1212.6
2014-Nov-28 04:33N 39°53' E 002°38'1312.7
2014-Nov-28 03:33N 40°01' E 002°50'1312.8
2014-Nov-28 02:33N 40°10' E 003°02'1312.7
2014-Nov-28 01:33N 40°20' E 003°14'8911.8
2014-Nov-27 18:00N 41°18' E 004°42'918.7 150 / 161004.8 5.4 19.115.819.7
2014-Nov-27 17:29N 41°26' E 004°49'1612.6
2014-Nov-27 16:12N 41°37' E 005°04'8512.8
2014-Nov-27 09:33N 42°34' E 006°29'2013.2
2014-Nov-27 08:03N 42°48' E 006°49'713.6
2014-Nov-27 07:30N 42°53' E 006°56'9612.1
2014-Nov-26 23:33N 43°60' E 008°31'1010.2
2014-Nov-26 22:33N 44°07' E 008°40'6 6.5
2014-Nov-26 21:33N 44°12' E 008°47'10 9.4
2014-Nov-26 20:33N 44°19' E 008°56'4 4.3
2014-Nov-26 19:34N 44°23' E 008°57'2 2.2
2014-Nov-26 18:31N 44°24' E 008°54'0 0.0
2014-Nov-26 17:28N 44°24' E 008°54'0 0.0
2014-Nov-26 16:31N 44°24' E 008°54'0 0.0
2014-Nov-26 15:31N 44°24' E 008°54'0 0.0
2014-Nov-26 14:31N 44°24' E 008°54'0 0.0
2014-Nov-26 13:28N 44°24' E 008°54'0 0.0
2014-Nov-26 12:31N 44°24' E 008°54'0 0.0
2014-Nov-26 11:34N 44°24' E 008°54'0 0.0
2014-Nov-26 10:33N 44°24' E 008°54'0 0.0
2014-Nov-26 09:27N 44°24' E 008°54'0 0.0
2014-Nov-26 08:33N 44°24' E 008°54'0 0.0
2014-Nov-26 07:30N 44°24' E 008°54'0 0.0
2014-Nov-26 04:15N 44°24' E 008°54'0 0.0
2014-Nov-26 03:30N 44°24' E 008°54'0 0.0
2014-Nov-26 02:24N 44°24' E 008°54'0 0.0
2014-Nov-26 01:33N 44°24' E 008°54'0 0.0
2014-Nov-26 00:30N 44°24' E 008°54'0 0.0
2014-Nov-25 23:30N 44°24' E 008°54'0 0.0
2014-Nov-25 21:09N 44°24' E 008°54'0 0.0
2014-Nov-25 19:27N 44°24' E 008°54'0 0.0
2014-Nov-25 18:24N 44°24' E 008°54'0 0.0
2014-Nov-25 17:33N 44°24' E 008°54'0 0.0
2014-Nov-25 16:27N 44°24' E 008°54'2 1.4
2014-Nov-25 15:16N 44°24' E 008°56'0 0.0
2014-Nov-25 14:10N 44°24' E 008°56'0 0.0
2014-Nov-25 13:10N 44°24' E 008°56'0 0.0
2014-Nov-25 11:19N 44°24' E 008°56'0 0.0
2014-Nov-25 10:10N 44°24' E 008°56'0 0.0
2014-Nov-25 07:07N 44°24' E 008°56'0 0.0
2014-Nov-25 03:19N 44°24' E 008°56'0 0.0
2014-Nov-25 02:22N 44°24' E 008°56'0 0.0
2014-Nov-25 00:10N 44°24' E 008°56'0 0.0
2014-Nov-24 20:16N 44°24' E 008°56'0 0.0
2014-Nov-24 19:22N 44°24' E 008°56'0 0.0
2014-Nov-24 15:34N 44°24' E 008°56'0 0.0
2014-Nov-24 13:33N 44°24' E 008°56'0 0.0
2014-Nov-24 12:27N 44°24' E 008°56'0 0.0
2014-Nov-24 11:27N 44°24' E 008°56'0 0.0
2014-Nov-24 08:03N 44°24' E 008°56'0 0.0
2014-Nov-24 07:18N 44°24' E 008°56'0 0.0
2014-Nov-24 03:30N 44°24' E 008°56'0 0.0
2014-Nov-24 02:33N 44°24' E 008°56'0 0.0
2014-Nov-24 01:30N 44°24' E 008°56'0 0.0
2014-Nov-24 00:27N 44°24' E 008°56'0 0.0
2014-Nov-23 23:27N 44°24' E 008°56'0 0.0
2014-Nov-23 22:15N 44°24' E 008°56'0 0.0
2014-Nov-23 19:15N 44°24' E 008°56'0 0.0
2014-Nov-23 18:15N 44°24' E 008°56'0 0.0
2014-Nov-23 16:27N 44°24' E 008°56'0 0.0
2014-Nov-23 15:33N 44°24' E 008°56'0 0.0
2014-Nov-23 13:21N 44°24' E 008°56'0 0.0
2014-Nov-23 12:27N 44°24' E 008°56'0 0.0
2014-Nov-23 11:30N 44°24' E 008°56'0 0.0
2014-Nov-23 10:30N 44°24' E 008°56'0 0.0
2014-Nov-23 08:27N 44°24' E 008°56'0 0.0
2014-Nov-23 07:33N 44°24' E 008°56'0 0.0
2014-Nov-23 06:24N 44°24' E 008°56'0 0.0
2014-Nov-23 03:32N 44°24' E 008°56'0 0.0
2014-Nov-23 01:20N 44°24' E 008°56'0 0.0
2014-Nov-22 20:05N 44°24' E 008°56'0 0.0
2014-Nov-22 19:32N 44°24' E 008°56'0 0.0
2014-Nov-22 18:32N 44°24' E 008°56'0 0.0
2014-Nov-22 17:14N 44°24' E 008°56'0 0.0
2014-Nov-22 16:20N 44°24' E 008°56'0 0.0
2014-Nov-22 15:17N 44°24' E 008°56'0 0.0
2014-Nov-22 14:23N 44°24' E 008°56'0 0.0
2014-Nov-22 11:26N 44°24' E 008°56'0 0.0
2014-Nov-22 09:20N 44°24' E 008°56'0 0.0
2014-Nov-22 07:32N 44°24' E 008°56'0 0.0
2014-Nov-22 06:26N 44°24' E 008°56'0 0.0
2014-Nov-22 03:32N 44°24' E 008°56'0 0.0
2014-Nov-22 02:32N 44°24' E 008°56'0 0.0
2014-Nov-22 01:32N 44°24' E 008°56'0 0.0
2014-Nov-22 00:14N 44°24' E 008°56'0 0.0
2014-Nov-21 23:26N 44°24' E 008°56'0 0.0
2014-Nov-21 22:29N 44°24' E 008°56'0 0.0
2014-Nov-21 19:32N 44°24' E 008°56'0 0.0
2014-Nov-21 16:13N 44°24' E 008°56'0 0.0
2014-Nov-21 15:31N 44°24' E 008°56'0 0.0
2014-Nov-21 11:30N 44°24' E 008°56'0 0.0
2014-Nov-21 08:06N 44°24' E 008°56'0 0.0
2014-Nov-21 05:12N 44°24' E 008°56'0 0.0
2014-Nov-21 03:12N 44°24' E 008°56'0 0.0
2014-Nov-21 01:18N 44°24' E 008°56'0 0.0
2014-Nov-21 00:33N 44°24' E 008°56'0 0.0
2014-Nov-20 20:06N 44°24' E 008°56'0 0.0
2014-Nov-20 16:30N 44°24' E 008°56'0 0.0
2014-Nov-20 15:30N 44°24' E 008°56'0 0.0
2014-Nov-20 14:18N 44°24' E 008°56'0 0.0
2014-Nov-20 13:18N 44°24' E 008°56'0 0.0
2014-Nov-20 12:12N 44°24' E 008°56'0 0.0
2014-Nov-20 11:30N 44°24' E 008°56'0 0.0
2014-Nov-20 10:18N 44°24' E 008°56'0 0.0
2014-Nov-20 03:33N 44°24' E 008°56'0 0.0
2014-Nov-20 02:33N 44°24' E 008°56'0 0.0
2014-Nov-20 01:06N 44°24' E 008°56'0 0.0
2014-Nov-19 23:23N 44°24' E 008°56'0 0.0
2014-Nov-19 19:29N 44°24' E 008°56'0 0.0
2014-Nov-19 18:32N 44°24' E 008°56'0 0.0
2014-Nov-19 16:29N 44°24' E 008°56'0 0.0
2014-Nov-19 15:23N 44°24' E 008°56'0 0.0
2014-Nov-19 13:11N 44°24' E 008°56'0 0.0
2014-Nov-19 11:29N 44°24' E 008°56'0 0.0
2014-Nov-19 08:29N 44°24' E 008°56'0 0.0
2014-Nov-19 03:29N 44°24' E 008°56'0 0.0
2014-Nov-19 02:20N 44°24' E 008°56'0 0.0
2014-Nov-19 01:11N 44°24' E 008°56'0 0.0
2014-Nov-19 00:23N 44°24' E 008°56'0 0.0
2014-Nov-18 23:23N 44°24' E 008°56'0 0.0
2014-Nov-18 22:17N 44°24' E 008°56'  

Dump ship's entire track history